createdAt,value
2017-12-08T00:00:44.907Z,50.7
2017-12-08T00:01:53.732Z,50.51
2017-12-08T00:03:02.834Z,50.22
2017-12-08T00:04:11.950Z,50.7
2017-12-08T00:05:20.975Z,51.45
2017-12-08T00:06:29.802Z,51.55
2017-12-08T00:07:38.628Z,51.83
2017-12-08T00:08:47.453Z,51.83
2017-12-08T00:09:56.560Z,52.31
2017-12-08T00:11:05.385Z,52.97
2017-12-08T00:12:14.213Z,53.83
2017-12-08T00:13:23.037Z,53.83
2017-12-08T00:14:31.866Z,53.83
2017-12-08T00:15:40.690Z,53.83
2017-12-08T00:16:49.517Z,53.92
2017-12-08T00:17:58.343Z,54.02
2017-12-08T00:19:07.169Z,52.4
2017-12-08T00:20:15.997Z,52.97
2017-12-08T00:21:25.102Z,52.31
2017-12-08T00:22:33.984Z,52.87
2017-12-08T00:23:43.083Z,53.07
2017-12-08T00:24:51.908Z,54.21
2017-12-08T00:26:00.735Z,53.54
2017-12-08T00:27:09.561Z,53.73
2017-12-08T00:28:18.588Z,54.02
2017-12-08T00:29:27.415Z,52.78
2017-12-08T00:30:36.795Z,53.07
2017-12-08T00:31:45.620Z,53.07
2017-12-08T00:32:54.443Z,54.21
2017-12-08T00:34:03.419Z,55.63
2017-12-08T00:35:12.245Z,55.73
2017-12-08T00:36:21.070Z,55.82
2017-12-08T00:37:29.894Z,55.44
2017-12-08T00:38:38.722Z,55.82
2017-12-08T00:39:47.598Z,56.29
2017-12-08T00:40:56.425Z,56.46
2017-12-08T00:42:05.251Z,57.03
2017-12-08T00:43:14.078Z,58.07
2017-12-08T00:44:22.904Z,57.53
2017-12-08T00:45:31.729Z,57.72
2017-12-08T00:46:40.557Z,57.72
2017-12-08T00:47:49.385Z,57.81
2017-12-08T00:48:58.208Z,57.88
2017-12-08T00:50:07.036Z,56.84
2017-12-08T00:51:15.912Z,57.88
2017-12-08T00:52:24.742Z,57.79
2017-12-08T00:53:33.565Z,58.26
2017-12-08T00:54:42.393Z,59.11
2017-12-08T00:55:51.218Z,59.02
2017-12-08T00:57:00.471Z,58.83
2017-12-08T00:58:09.570Z,58.83
2017-12-08T00:59:18.396Z,60.35
2017-12-08T01:00:27.224Z,59.4
2017-12-08T01:01:36.326Z,60.53
2017-12-08T01:02:45.252Z,60.82
2017-12-08T01:03:54.356Z,61.01
2017-12-08T01:05:03.179Z,61.11
2017-12-08T01:06:12.010Z,61.2
2017-12-08T01:07:20.837Z,61.2
2017-12-08T01:08:29.714Z,61.01
2017-12-08T01:09:38.541Z,61.11
2017-12-08T01:10:47.369Z,61.11
2017-12-08T01:11:56.193Z,61.11
2017-12-08T01:13:05.297Z,61.49
2017-12-08T01:14:14.422Z,61.77
2017-12-08T01:15:23.249Z,61.87
2017-12-08T01:16:32.077Z,61.68
2017-12-08T01:17:40.902Z,60.63
2017-12-08T01:18:49.727Z,61.49
2017-12-08T01:19:58.654Z,61.3
2017-12-08T01:21:07.481Z,62.24
2017-12-08T01:22:16.305Z,62.24
2017-12-08T01:23:25.133Z,62.72
2017-12-08T01:24:33.977Z,63.39
2017-12-08T01:25:42.988Z,63.57
2017-12-08T01:26:51.817Z,63.2
2017-12-08T01:28:00.642Z,63.07
2017-12-08T01:29:09.477Z,63.01
2017-12-08T01:30:18.303Z,61.11
2017-12-08T01:31:27.232Z,62.53
2017-12-08T01:32:36.057Z,62.34
2017-12-08T01:33:44.881Z,62.72
2017-12-08T01:34:53.998Z,62.4
2017-12-08T01:36:02.824Z,62.4
2017-12-08T01:37:11.849Z,62.24
2017-12-08T01:38:20.673Z,63.07
2017-12-08T01:39:29.502Z,62.82
2017-12-08T01:40:38.328Z,62.78
2017-12-08T01:41:47.152Z,62.59
2017-12-08T01:42:56.131Z,62.5
2017-12-08T01:44:04.959Z,62.5
2017-12-08T01:45:13.792Z,63.07
2017-12-08T01:46:22.610Z,62.4
2017-12-08T01:47:31.435Z,62.82
2017-12-08T01:48:40.687Z,62.5
2017-12-08T01:49:49.515Z,63.07
2017-12-08T01:50:58.339Z,63.26
2017-12-08T01:52:07.164Z,62.88
2017-12-08T01:53:15.988Z,63.26
2017-12-08T01:54:25.013Z,63.35
2017-12-08T01:55:33.840Z,63.26
2017-12-08T01:56:42.664Z,63.35
2017-12-08T01:57:51.490Z,62.78
2017-12-08T01:59:00.314Z,63.26
2017-12-08T02:00:09.187Z,63.26
2017-12-08T02:01:18.014Z,62.97
2017-12-08T02:02:26.848Z,63.45
2017-12-08T02:03:35.672Z,63.26
2017-12-08T02:04:44.498Z,63.26
2017-12-08T02:05:53.424Z,63.54
2017-12-08T02:07:02.251Z,63.07
2017-12-08T02:08:11.078Z,63.35
2017-12-08T02:09:19.902Z,63.92
2017-12-08T02:10:28.730Z,64.3
2017-12-08T02:11:37.808Z,64.11
2017-12-08T02:12:46.638Z,64.01
2017-12-08T02:13:55.735Z,63.92
2017-12-08T02:15:04.558Z,63.45
2017-12-08T02:16:13.381Z,63.92
2017-12-08T02:17:22.207Z,64.49
2017-12-08T02:18:31.032Z,65.06
2017-12-08T02:19:39.857Z,65.44
2017-12-08T02:20:48.684Z,66.86
2017-12-08T02:21:57.509Z,66.67
2017-12-08T02:23:06.635Z,66.29
2017-12-08T02:24:15.464Z,67.24
2017-12-08T02:25:24.562Z,66.96
2017-12-08T02:26:33.387Z,67.24
2017-12-08T02:27:42.212Z,66.77
2017-12-08T02:28:51.613Z,67.24
2017-12-08T02:30:00.439Z,67.62
2017-12-08T02:31:09.267Z,67.81
2017-12-08T02:32:18.092Z,67.52
2017-12-08T02:33:26.918Z,67.9
2017-12-08T02:34:35.850Z,65.53
2017-12-08T02:35:44.669Z,66.48
2017-12-08T02:36:53.500Z,66.67
2017-12-08T02:38:02.326Z,67.14
2017-12-08T02:39:11.151Z,68.38
2017-12-08T02:40:20.328Z,68.29
2017-12-08T02:41:29.154Z,67.14
2017-12-08T02:42:38.255Z,66.86
2017-12-08T02:43:47.359Z,68
2017-12-08T02:44:56.190Z,67.9
2017-12-08T02:46:05.265Z,68.76
2017-12-08T02:47:14.092Z,68.1
2017-12-08T02:48:22.918Z,69.04
2017-12-08T02:49:31.744Z,69.33
2017-12-08T02:50:40.571Z,68.57
2017-12-08T02:51:49.397Z,68.57
2017-12-08T02:52:58.494Z,68.66
2017-12-08T02:54:07.320Z,68.85
2017-12-08T02:55:16.146Z,68.29
2017-12-08T02:56:24.973Z,68.57
2017-12-08T02:57:34.175Z,68.76
2017-12-08T02:58:43.001Z,69.61
2017-12-08T02:59:51.826Z,69.9
2017-12-08T03:01:00.653Z,68.95
2017-12-08T03:02:09.478Z,69.71
2017-12-08T03:03:18.455Z,71.03
2017-12-08T03:04:27.280Z,71.03
2017-12-08T03:05:36.105Z,71.98
2017-12-08T03:06:44.930Z,72.27
2017-12-08T03:07:53.755Z,71.98
2017-12-08T03:09:34.941Z,72.08
2017-12-08T03:10:44.040Z,73.03
2017-12-08T03:11:52.867Z,71.22
2017-12-08T03:13:01.693Z,71.89
2017-12-08T03:14:10.567Z,73.12
2017-12-08T03:15:19.392Z,74.07
2017-12-08T03:16:28.218Z,75.21
2017-12-08T03:17:37.042Z,74.83
2017-12-08T03:18:45.868Z,74.73
2017-12-08T03:19:54.747Z,74.26
2017-12-08T03:21:03.573Z,74.45
2017-12-08T03:22:12.399Z,72.45
2017-12-08T03:23:21.270Z,74.54
2017-12-08T03:24:30.048Z,73.97
2017-12-08T03:25:39.199Z,76.06
2017-12-08T03:26:48.025Z,74.73
2017-12-08T03:27:56.853Z,75.49
2017-12-08T03:29:05.681Z,75.49
2017-12-08T03:30:14.511Z,75.87
2017-12-08T03:31:23.544Z,75.31
2017-12-08T03:32:32.645Z,75.87
2017-12-08T03:33:41.746Z,75.68
2017-12-08T03:34:50.571Z,75.87
2017-12-08T03:35:59.398Z,75.68
2017-12-08T03:37:08.471Z,75.55
2017-12-08T03:38:17.348Z,75.21
2017-12-08T03:39:26.172Z,75.11
2017-12-08T03:40:35.003Z,76.03
2017-12-08T03:41:44.104Z,75.31
2017-12-08T03:42:52.997Z,75.84
2017-12-08T03:44:01.809Z,76.12
2017-12-08T03:45:10.684Z,76.03
2017-12-08T03:46:19.510Z,75.17
2017-12-08T03:47:28.335Z,75.07
2017-12-08T03:48:37.566Z,76.59
2017-12-08T03:49:46.392Z,75.45
2017-12-08T03:50:55.488Z,76.4
2017-12-08T03:52:04.325Z,76.4
2017-12-08T03:53:13.151Z,76.03
2017-12-08T03:54:21.976Z,76.12
2017-12-08T03:55:31.082Z,76.12
2017-12-08T03:56:39.910Z,76.59
2017-12-08T03:57:48.732Z,76.59
2017-12-08T03:58:57.559Z,75.93
2017-12-08T04:00:06.798Z,76.5
2017-12-08T04:01:15.582Z,76.12
2017-12-08T04:02:24.683Z,75.93
2017-12-08T04:03:33.508Z,75.26
2017-12-08T04:04:42.331Z,75.45
2017-12-08T04:05:51.155Z,77.16
2017-12-08T04:06:59.981Z,75.74
2017-12-08T04:08:08.805Z,74.51
2017-12-08T04:09:17.631Z,73.08
2017-12-08T04:10:26.455Z,73.79
2017-12-08T04:11:35.431Z,74.83
2017-12-08T04:12:44.594Z,72.23
2017-12-08T04:13:53.418Z,73.31
2017-12-08T04:15:02.243Z,76.5
2017-12-08T04:16:11.073Z,73.27
2017-12-08T04:17:20.504Z,76.03
2017-12-08T04:18:29.330Z,76.59
2017-12-08T04:19:38.707Z,74.98
2017-12-08T04:20:47.534Z,76.12
2017-12-08T04:21:56.638Z,76.12
2017-12-08T04:23:06.046Z,75.93
2017-12-08T04:24:15.419Z,76.68
2017-12-08T04:25:24.519Z,76.68
2017-12-08T04:26:33.346Z,76.59
2017-12-08T04:27:42.174Z,76.59
2017-12-08T04:28:51.048Z,77.06
2017-12-08T04:29:59.874Z,77.16
2017-12-08T04:31:08.700Z,76.68
2017-12-08T04:32:17.799Z,77.25
2017-12-08T04:33:26.624Z,77.45
2017-12-08T04:34:35.599Z,75.93
2017-12-08T04:35:44.430Z,75.64
2017-12-08T04:36:53.526Z,77.54
2017-12-08T04:38:02.356Z,77.83
2017-12-08T04:39:11.177Z,76.97
2017-12-08T04:40:20.002Z,78.11
2017-12-08T04:41:28.829Z,77.73
2017-12-08T04:42:37.927Z,78.3
2017-12-08T04:43:46.760Z,77.54
2017-12-08T04:44:55.860Z,77.45
2017-12-08T04:46:04.734Z,77.06
2017-12-08T04:47:13.561Z,78.39
2017-12-08T04:48:22.660Z,77.73
2017-12-08T04:49:31.484Z,78.2
2017-12-08T04:50:40.310Z,78.49
2017-12-08T04:51:49.186Z,79.15
2017-12-08T04:52:58.012Z,79.53
2017-12-08T04:54:06.894Z,78.49
2017-12-08T04:55:15.662Z,79.15
2017-12-08T04:56:24.487Z,79.53
2017-12-08T04:57:33.589Z,80.57
2017-12-08T04:58:42.413Z,80.38
2017-12-08T04:59:51.238Z,80.95
2017-12-08T05:01:00.095Z,82.18
2017-12-08T05:02:09.472Z,81.05
2017-12-08T05:03:18.973Z,81.62
2017-12-08T05:04:27.797Z,83.23
2017-12-08T05:05:36.623Z,82.75
2017-12-08T05:06:45.447Z,82.47
2017-12-08T05:07:54.272Z,83.42
2017-12-08T05:09:03.395Z,83.04
2017-12-08T05:10:12.224Z,82.47
2017-12-08T05:11:21.322Z,82.94
2017-12-08T05:12:30.146Z,82.28
2017-12-08T05:13:38.967Z,83.04
2017-12-08T05:14:48.043Z,84.27
2017-12-08T05:15:56.866Z,84.27
2017-12-08T05:17:05.691Z,83.23
2017-12-08T05:18:14.515Z,86.16
2017-12-08T05:19:23.339Z,85.22
2017-12-08T05:20:32.170Z,88.25
2017-12-08T05:21:40.989Z,86.93
2017-12-08T05:22:49.815Z,86.93
2017-12-08T05:23:58.640Z,83.7
2017-12-08T05:25:07.740Z,84.27
2017-12-08T05:26:16.612Z,85.97
2017-12-08T05:27:25.439Z,86.64
2017-12-08T05:28:34.263Z,84.94
2017-12-08T05:29:43.088Z,88.16
2017-12-08T05:30:51.915Z,90.43
2017-12-08T05:32:01.021Z,89.67
2017-12-08T05:33:10.117Z,89.77
2017-12-08T05:34:19.221Z,90.62
2017-12-08T05:35:28.070Z,90.62
2017-12-08T05:36:36.898Z,90.72
2017-12-08T05:37:45.723Z,91.85
2017-12-08T05:38:54.549Z,91.28
2017-12-08T05:40:03.375Z,90.81
2017-12-08T05:41:12.201Z,89.58
2017-12-08T05:42:21.023Z,89.86
2017-12-08T05:43:30.124Z,89.48
2017-12-08T05:44:38.952Z,91.76
2017-12-08T05:45:47.778Z,93.46
2017-12-08T05:46:56.604Z,91.19
2017-12-08T05:48:05.428Z,92.42
2017-12-08T05:49:14.253Z,94.42
2017-12-08T05:50:23.081Z,94.13
2017-12-08T05:51:31.905Z,92.8
2017-12-08T05:52:40.726Z,94.42
2017-12-08T05:53:49.552Z,92.71
2017-12-08T05:54:58.373Z,94.6
2017-12-08T05:56:07.199Z,93.94
2017-12-08T05:57:16.025Z,94.18
2017-12-08T05:58:24.848Z,95.45
2017-12-08T05:59:33.672Z,93.84
2017-12-08T06:00:42.496Z,96.73
2017-12-08T06:01:51.325Z,97.07
2017-12-08T06:03:00.149Z,94.37
2017-12-08T06:04:08.973Z,97.35
2017-12-08T06:05:17.802Z,98.02
2017-12-08T06:06:26.627Z,97.26
2017-12-08T06:07:35.509Z,97.73
2017-12-08T06:08:44.342Z,97.54
2017-12-08T06:09:53.173Z,99.06
2017-12-08T06:11:02.003Z,98.02
2017-12-08T06:12:10.827Z,99.15
2017-12-08T06:13:19.953Z,97.07
2017-12-08T06:14:28.778Z,94.51
2017-12-08T06:15:37.606Z,95.55
2017-12-08T06:16:46.432Z,98.68
2017-12-08T06:17:55.256Z,97.21
2017-12-08T06:19:04.081Z,95.17
2017-12-08T06:20:12.908Z,98.49
2017-12-08T06:21:21.735Z,97.49
2017-12-08T06:22:30.563Z,95.98
2017-12-08T06:23:39.387Z,96.17
2017-12-08T06:24:48.515Z,97.3
2017-12-08T06:25:57.341Z,96.26
2017-12-08T06:27:06.163Z,95.98
2017-12-08T06:28:14.988Z,93.61
2017-12-08T06:29:23.814Z,95.41
2017-12-08T06:30:32.914Z,92
2017-12-08T06:31:42.012Z,91.05
2017-12-08T06:32:50.837Z,89.72
2017-12-08T06:33:59.705Z,90.77
2017-12-08T06:35:08.485Z,88.78
2017-12-08T06:36:17.361Z,88.96
2017-12-08T06:37:26.185Z,88.02
2017-12-08T06:38:35.010Z,87.45
2017-12-08T06:39:43.834Z,85.27
2017-12-08T06:40:52.937Z,79.49
2017-12-08T06:42:01.763Z,79.49
2017-12-08T06:43:10.587Z,78.73
2017-12-08T06:44:19.413Z,79.68
2017-12-08T06:45:28.298Z,78.92
2017-12-08T06:46:37.065Z,79.02
2017-12-08T06:47:46.039Z,79.21
2017-12-08T06:48:54.864Z,78.64
2017-12-08T06:50:03.694Z,78.35
2017-12-08T06:51:12.518Z,78.07
2017-12-08T06:52:21.629Z,78.16
2017-12-08T06:53:30.502Z,77.59
2017-12-08T06:54:39.327Z,76.27
2017-12-08T06:55:48.157Z,75.6
2017-12-08T06:56:56.979Z,73.52
2017-12-08T06:58:05.805Z,74.09
2017-12-08T06:59:14.904Z,73.99
2017-12-08T07:00:23.730Z,74.47
2017-12-08T07:01:32.555Z,73.39
2017-12-08T07:02:41.380Z,73.05
2017-12-08T07:03:50.201Z,72.19
2017-12-08T07:04:59.077Z,71.53
2017-12-08T07:06:07.901Z,72
2017-12-08T07:07:17.001Z,71.91
2017-12-08T07:08:25.824Z,72.1
2017-12-08T07:09:34.649Z,71.81
2017-12-08T07:10:43.628Z,72
2017-12-08T07:11:52.785Z,72
2017-12-08T07:13:01.610Z,71.91
2017-12-08T07:14:10.434Z,71.62
2017-12-08T07:15:19.260Z,71.91
2017-12-08T07:16:28.135Z,72.1
2017-12-08T07:17:36.961Z,71.44
2017-12-08T07:18:45.788Z,72
2017-12-08T07:19:54.613Z,72.1
2017-12-08T07:21:03.439Z,71.53
2017-12-08T07:22:12.587Z,71.81
2017-12-08T07:23:21.413Z,71.53
2017-12-08T07:24:30.286Z,71.91
2017-12-08T07:25:39.111Z,71.91
2017-12-08T07:26:47.937Z,71.81
2017-12-08T07:27:56.814Z,72.29
2017-12-08T07:29:05.912Z,71.91
2017-12-08T07:30:15.022Z,71.81
2017-12-08T07:31:23.851Z,72.19
2017-12-08T07:32:32.673Z,72.1
2017-12-08T07:33:41.499Z,72.48
2017-12-08T07:34:50.325Z,72.38
2017-12-08T07:35:59.150Z,72.57
2017-12-08T07:37:07.976Z,72.57
2017-12-08T07:38:16.801Z,72.96
2017-12-08T07:39:25.677Z,72.77
2017-12-08T07:40:34.780Z,72.48
2017-12-08T07:41:43.607Z,72.57
2017-12-08T07:42:52.432Z,72.48
2017-12-08T07:44:01.260Z,72.96
2017-12-08T07:45:10.458Z,73.24
2017-12-08T07:46:19.281Z,73.52
2017-12-08T07:47:28.107Z,74.09
2017-12-08T07:48:36.939Z,73.99
2017-12-08T07:49:45.758Z,74.09
2017-12-08T07:50:54.683Z,73.43
2017-12-08T07:52:03.511Z,73.9
2017-12-08T07:53:12.333Z,73.99
2017-12-08T07:54:21.159Z,73.99
2017-12-08T07:55:29.985Z,74.18
2017-12-08T07:56:39.061Z,74.85
2017-12-08T07:57:48.166Z,74.85
2017-12-08T07:58:56.994Z,74.75
2017-12-08T08:00:05.817Z,74.66
2017-12-08T08:01:14.645Z,73.61
2017-12-08T08:02:23.567Z,75.51
2017-12-08T08:03:32.389Z,75.32
2017-12-08T08:04:41.214Z,75.7
2017-12-08T08:05:50.040Z,76.74
2017-12-08T08:06:58.864Z,76.74
2017-12-08T08:08:07.839Z,77.12
2017-12-08T08:09:16.668Z,77.22
2017-12-08T08:10:25.492Z,77.31
2017-12-08T08:11:34.319Z,77.08
2017-12-08T08:12:43.144Z,77.78
2017-12-08T08:13:52.015Z,77.31
2017-12-08T08:15:00.841Z,77.18
2017-12-08T08:16:09.939Z,77.03
2017-12-08T08:17:19.057Z,77.12
2017-12-08T08:18:28.139Z,77.22
2017-12-08T08:19:37.242Z,77.12
2017-12-08T08:20:46.068Z,77.69
2017-12-08T08:21:54.897Z,77.88
2017-12-08T08:23:03.722Z,77.59
2017-12-08T08:24:12.822Z,78.54
2017-12-08T08:25:21.797Z,79.49
2017-12-08T08:26:30.905Z,79.49
2017-12-08T08:27:39.738Z,79.58
2017-12-08T08:28:48.599Z,78.92
2017-12-08T08:29:57.386Z,79.49
2017-12-08T08:31:06.262Z,79.58
2017-12-08T08:32:15.361Z,79.49
2017-12-08T08:33:24.184Z,80.53
2017-12-08T08:34:33.011Z,79.87
2017-12-08T08:35:41.836Z,81.2
2017-12-08T08:36:50.813Z,80.91
2017-12-08T08:37:59.638Z,80.91
2017-12-08T08:39:08.464Z,80.91
2017-12-08T08:40:17.291Z,81.2
2017-12-08T08:41:26.115Z,80.06
2017-12-08T08:42:35.241Z,80.91
2017-12-08T08:43:44.067Z,80.91
2017-12-08T08:44:52.891Z,81.1
2017-12-08T08:46:01.714Z,81.67
2017-12-08T08:47:10.540Z,80.63
2017-12-08T08:48:19.668Z,82.33
2017-12-08T08:49:28.494Z,85.36
2017-12-08T08:50:37.594Z,85.93
2017-12-08T08:51:46.419Z,86.03
2017-12-08T08:52:55.246Z,88.02
2017-12-08T08:54:04.285Z,88.4
2017-12-08T08:55:13.113Z,88.49
2017-12-08T08:56:22.216Z,88.78
2017-12-08T08:57:31.042Z,89.53
2017-12-08T08:58:39.866Z,90.39
2017-12-08T08:59:48.843Z,90.77
2017-12-08T09:00:57.668Z,92
2017-12-08T09:02:06.494Z,92.28
2017-12-08T09:03:15.321Z,92.94
2017-12-08T09:04:24.148Z,94.65
2017-12-08T09:05:32.978Z,94.65
2017-12-08T09:06:41.806Z,93.89
2017-12-08T09:07:50.635Z,94.37
2017-12-08T09:08:59.470Z,94.37
2017-12-08T09:10:08.297Z,94.18
2017-12-08T09:11:17.173Z,96.36
2017-12-08T09:12:26.000Z,96.55
2017-12-08T09:13:34.830Z,96.45
2017-12-08T09:14:43.657Z,96.64
2017-12-08T09:15:52.483Z,96.45
2017-12-08T09:17:01.412Z,97.4
2017-12-08T09:18:10.237Z,97.97
2017-12-08T09:19:19.065Z,99.99
2017-12-08T09:20:27.896Z,98.82
2017-12-08T09:21:36.723Z,99.99
2017-12-08T09:22:45.549Z,99.99
2017-12-08T09:23:54.378Z,99.99
2017-12-08T09:25:03.204Z,99.99
2017-12-08T09:26:12.028Z,99.99
2017-12-08T09:27:20.855Z,99.99
2017-12-08T09:28:30.356Z,99.99
2017-12-08T09:29:39.182Z,99.99
2017-12-08T09:30:48.289Z,99.99
2017-12-08T09:31:57.117Z,99.99
2017-12-08T09:33:05.948Z,99.99
2017-12-08T09:34:14.795Z,99.99
2017-12-08T09:35:23.599Z,99.99
2017-12-08T09:36:32.424Z,99.99
2017-12-08T09:37:41.249Z,99.99
2017-12-08T09:38:50.075Z,99.99
2017-12-08T09:39:59.054Z,99.99
2017-12-08T09:41:07.881Z,99.99
2017-12-08T09:42:16.708Z,99.99
2017-12-08T09:43:25.538Z,99.99
2017-12-08T09:44:34.371Z,99.99
2017-12-08T09:45:43.352Z,99.99
2017-12-08T09:46:52.178Z,99.99
2017-12-08T09:48:01.006Z,99.99
2017-12-08T09:49:09.836Z,99.99
2017-12-08T09:50:18.663Z,99.99
2017-12-08T09:51:27.790Z,99.99
2017-12-08T09:52:36.616Z,99.99
2017-12-08T09:53:45.443Z,99.99
2017-12-08T09:54:54.267Z,99.99
2017-12-08T09:56:03.094Z,99.99
2017-12-08T09:57:11.920Z,99.99
2017-12-08T09:58:20.748Z,99.99
2017-12-08T09:59:29.576Z,99.99
2017-12-08T10:00:38.402Z,99.99
2017-12-08T10:01:47.232Z,99.99
2017-12-08T10:02:56.262Z,99.99
2017-12-08T10:04:05.363Z,99.99
2017-12-08T10:05:14.190Z,99.99
2017-12-08T10:06:23.021Z,99.99
2017-12-08T10:07:31.849Z,99.99
2017-12-08T10:08:40.726Z,99.99
2017-12-08T10:09:49.555Z,99.99
2017-12-08T10:10:58.386Z,99.99
2017-12-08T10:12:07.209Z,99.99
2017-12-08T10:13:16.038Z,99.99
2017-12-08T10:14:25.019Z,99.99
2017-12-08T10:15:34.137Z,99.99
2017-12-08T10:16:42.964Z,99.99
2017-12-08T10:17:51.794Z,99.99
2017-12-08T10:19:00.657Z,99.99
2017-12-08T10:20:09.759Z,99.99
2017-12-08T10:21:18.573Z,99.99
2017-12-08T10:22:27.402Z,99.99
2017-12-08T10:23:36.509Z,99.99
2017-12-08T10:24:45.336Z,99.99
2017-12-08T10:25:54.210Z,99.99
2017-12-08T10:27:03.039Z,99.99
2017-12-08T10:28:11.868Z,99.99
2017-12-08T10:29:20.695Z,99.99
2017-12-08T10:30:29.523Z,99.99
2017-12-08T10:31:38.599Z,99.99
2017-12-08T10:32:47.425Z,99.99
2017-12-08T10:33:56.314Z,99.99
2017-12-08T10:35:05.085Z,99.99
2017-12-08T10:36:14.192Z,99.99
2017-12-08T10:37:23.119Z,99.99
2017-12-08T10:38:31.943Z,99.99
2017-12-08T10:39:40.772Z,99.99
2017-12-08T10:40:49.597Z,99.99
2017-12-08T10:41:58.429Z,99.99
2017-12-08T10:43:07.530Z,99.99
2017-12-08T10:44:16.412Z,99.99
2017-12-08T10:45:25.184Z,99.99
2017-12-08T10:46:34.011Z,99.99
2017-12-08T10:47:42.837Z,99.99
2017-12-08T10:48:51.763Z,99.99
2017-12-08T10:50:00.866Z,99.99
2017-12-08T10:51:09.691Z,99.99
2017-12-08T10:52:18.519Z,99.99
2017-12-08T10:53:27.346Z,99.99
2017-12-08T10:54:36.322Z,99.99
2017-12-08T10:55:45.150Z,99.99
2017-12-08T10:56:53.977Z,99.99
2017-12-08T10:58:03.079Z,99.99
2017-12-08T10:59:11.908Z,99.99
2017-12-08T11:00:20.787Z,99.99
2017-12-08T11:01:29.617Z,99.99
2017-12-08T11:02:38.718Z,99.99
2017-12-08T11:03:47.549Z,99.99
2017-12-08T11:04:56.374Z,99.99
2017-12-08T11:06:05.500Z,99.99
2017-12-08T11:07:14.327Z,99.99
2017-12-08T11:08:23.157Z,99.99
2017-12-08T11:09:31.979Z,99.99
2017-12-08T11:10:40.806Z,99.99
2017-12-08T11:11:49.934Z,99.99
2017-12-08T11:12:58.760Z,99.99
2017-12-08T11:14:07.870Z,99.99
2017-12-08T11:15:16.751Z,99.99
2017-12-08T11:16:25.808Z,99.99
2017-12-08T11:17:34.843Z,99.99
2017-12-08T11:18:43.680Z,99.99
2017-12-08T11:19:52.518Z,99.99
2017-12-08T11:21:01.629Z,99.99
2017-12-08T11:22:10.748Z,99.99
2017-12-08T11:23:19.913Z,99.99
2017-12-08T11:24:28.746Z,99.99
2017-12-08T11:25:37.583Z,99.99
2017-12-08T11:26:46.417Z,99.99
2017-12-08T11:27:55.254Z,99.99
2017-12-08T11:29:04.364Z,99.99
2017-12-08T11:30:13.196Z,99.99
2017-12-08T11:31:22.021Z,99.99
2017-12-08T11:32:30.847Z,99.99
2017-12-08T11:33:39.671Z,99.99
2017-12-08T11:34:49.071Z,99.99
2017-12-08T11:35:57.894Z,99.99
2017-12-08T11:37:06.720Z,99.15
2017-12-08T11:38:15.543Z,98.39
2017-12-08T11:39:24.369Z,98.11
2017-12-08T11:40:33.272Z,96.21
2017-12-08T11:41:42.070Z,95.36
2017-12-08T11:42:50.896Z,94.98
2017-12-08T11:43:59.721Z,93.75
2017-12-08T11:45:08.824Z,91.95
2017-12-08T11:46:17.802Z,91.19
2017-12-08T11:47:26.623Z,89.39
2017-12-08T11:48:35.452Z,87.31
2017-12-08T11:49:44.277Z,86.55
2017-12-08T11:50:53.101Z,85.99
2017-12-08T11:52:01.973Z,85.04
2017-12-08T11:53:10.802Z,84.38
2017-12-08T11:54:19.902Z,84.14
2017-12-08T11:55:28.722Z,83.86
2017-12-08T11:56:37.549Z,83.95
2017-12-08T11:57:46.423Z,82.53
2017-12-08T11:58:55.530Z,81.49
2017-12-08T12:00:04.635Z,80.64
2017-12-08T12:01:13.735Z,79.98
2017-12-08T12:02:22.557Z,79.6
2017-12-08T12:03:31.532Z,78.94
2017-12-08T12:04:40.636Z,79.03
2017-12-08T12:05:49.461Z,78.08
2017-12-08T12:06:58.285Z,76.86
2017-12-08T12:08:07.388Z,75.81
2017-12-08T12:09:16.312Z,75.81
2017-12-08T12:10:25.408Z,75.34
2017-12-08T12:11:34.231Z,76
2017-12-08T12:12:43.057Z,75.53
2017-12-08T12:13:51.886Z,75.81
2017-12-08T12:15:00.755Z,74.96
2017-12-08T12:16:09.582Z,75.24
2017-12-08T12:17:18.405Z,74.68
2017-12-08T12:18:27.230Z,74.49
2017-12-08T12:19:36.057Z,73.92
2017-12-08T12:20:45.033Z,74.02
2017-12-08T12:21:53.859Z,74.02
2017-12-08T12:23:02.683Z,74.21
2017-12-08T12:24:11.506Z,74.11
2017-12-08T12:25:20.328Z,74.02
2017-12-08T12:26:29.453Z,73.35
2017-12-08T12:27:38.276Z,73.35
2017-12-08T12:28:47.102Z,72.78
2017-12-08T12:29:55.925Z,73.07
2017-12-08T12:31:04.752Z,72.97
2017-12-08T12:32:13.624Z,73.16
2017-12-08T12:33:22.450Z,72.69
2017-12-08T12:34:31.274Z,73.07
2017-12-08T12:35:40.097Z,72.88
2017-12-08T12:36:48.923Z,73.16
2017-12-08T12:37:57.896Z,73.26
2017-12-08T12:39:06.722Z,73.07
2017-12-08T12:40:15.546Z,72.88
2017-12-08T12:41:24.371Z,73.07
2017-12-08T12:42:33.197Z,72.47
2017-12-08T12:43:42.023Z,72.75
2017-12-08T12:44:50.849Z,73.13
2017-12-08T12:45:59.678Z,72.37
2017-12-08T12:47:08.499Z,72.66
2017-12-08T12:48:17.323Z,72.28
2017-12-08T12:49:26.248Z,72.09
2017-12-08T12:50:35.071Z,71.42
2017-12-08T12:51:43.896Z,71.33
2017-12-08T12:52:52.722Z,70.95
2017-12-08T12:54:01.546Z,70.95
2017-12-08T12:55:10.521Z,70.01
2017-12-08T12:56:19.618Z,69.85
2017-12-08T12:57:28.440Z,69.47
2017-12-08T12:58:37.274Z,69.57
2017-12-08T12:59:46.087Z,69.19
2017-12-08T13:00:54.912Z,69.09
2017-12-08T13:02:03.734Z,69.09
2017-12-08T13:03:12.560Z,69.38
2017-12-08T13:04:21.387Z,69
2017-12-08T13:05:30.209Z,69.09
2017-12-08T13:06:39.032Z,68.9
2017-12-08T13:07:47.858Z,69
2017-12-08T13:08:56.680Z,68.81
2017-12-08T13:10:05.506Z,68.62
2017-12-08T13:11:14.333Z,68.81
2017-12-08T13:12:23.209Z,68.52
2017-12-08T13:13:32.033Z,68.62
2017-12-08T13:14:40.861Z,68.43
2017-12-08T13:15:49.957Z,68.24
2017-12-08T13:16:58.782Z,68.33
2017-12-08T13:18:07.910Z,67.96
2017-12-08T13:19:16.736Z,67.96
2017-12-08T13:20:25.559Z,67.68
2017-12-08T13:21:34.662Z,67.2
2017-12-08T13:22:43.486Z,67.2
2017-12-08T13:23:52.310Z,67.11
2017-12-08T13:25:01.135Z,67.2
2017-12-08T13:26:09.959Z,67.3
2017-12-08T13:27:18.783Z,67.2
2017-12-08T13:28:27.607Z,67.2
2017-12-08T13:29:36.859Z,67.49
2017-12-08T13:30:45.693Z,67.3
2017-12-08T13:31:54.806Z,67.2
2017-12-08T13:33:03.630Z,67.39
2017-12-08T13:34:12.456Z,67.49
2017-12-08T13:35:21.334Z,67.39
2017-12-08T13:36:30.165Z,67.3
2017-12-08T13:37:38.997Z,67.2
2017-12-08T13:38:47.829Z,67.3
2017-12-08T13:39:56.652Z,67.39
2017-12-08T13:41:05.528Z,67.96
2017-12-08T13:42:14.350Z,67.58
2017-12-08T13:43:23.175Z,67.58
2017-12-08T13:44:31.998Z,67.49
2017-12-08T13:45:40.825Z,67.58
2017-12-08T13:46:50.347Z,67.58
2017-12-08T13:47:59.173Z,67.96
2017-12-08T13:49:08.273Z,68.05
2017-12-08T13:50:17.099Z,67.96
2017-12-08T13:51:25.924Z,67.86
2017-12-08T13:52:34.801Z,68.43
2017-12-08T13:53:43.622Z,68.62
2017-12-08T13:54:52.477Z,68.68
2017-12-08T13:56:01.302Z,68.59
2017-12-08T13:57:10.126Z,67.83
2017-12-08T13:58:19.249Z,68.4
2017-12-08T13:59:28.073Z,68.59
2017-12-08T14:00:36.899Z,68.21
2017-12-08T14:01:46.025Z,67.83
2017-12-08T14:02:54.847Z,67.74
2017-12-08T14:04:03.872Z,67.07
2017-12-08T14:05:12.696Z,67.26
2017-12-08T14:06:21.521Z,66.35
2017-12-08T14:07:30.343Z,66.13
2017-12-08T14:08:39.167Z,66.13
2017-12-08T14:09:48.041Z,65.94
2017-12-08T14:10:56.861Z,66.31
2017-12-08T14:12:05.684Z,65.84
2017-12-08T14:13:14.782Z,65.94
2017-12-08T14:14:23.605Z,66.13
2017-12-08T14:15:32.827Z,66.03
2017-12-08T14:16:41.650Z,65.66
2017-12-08T14:17:50.474Z,65.75
2017-12-08T14:18:59.299Z,65.66
2017-12-08T14:20:08.123Z,65.37
2017-12-08T14:21:17.097Z,65.56
2017-12-08T14:22:25.923Z,65.47
2017-12-08T14:23:34.745Z,65.56
2017-12-08T14:24:43.567Z,65.84
2017-12-08T14:25:52.393Z,65.37
2017-12-08T14:27:01.490Z,65.56
2017-12-08T14:28:10.311Z,64.99
2017-12-08T14:29:19.136Z,65.28
2017-12-08T14:30:27.959Z,65.18
2017-12-08T14:31:36.826Z,64.61
2017-12-08T14:32:45.749Z,64.99
2017-12-08T14:33:54.573Z,64.71
2017-12-08T14:35:03.673Z,64.71
2017-12-08T14:36:12.498Z,64.61
2017-12-08T14:37:21.321Z,64.52
2017-12-08T14:38:30.297Z,64.61
2017-12-08T14:39:39.121Z,64.42
2017-12-08T14:40:47.944Z,64.42
2017-12-08T14:41:56.766Z,64.42
2017-12-08T14:43:05.587Z,64.33
2017-12-08T14:44:14.460Z,64.42
2017-12-08T14:45:23.287Z,64.55
2017-12-08T14:46:32.386Z,64.61
2017-12-08T14:47:41.211Z,64.33
2017-12-08T14:48:50.036Z,64.04
2017-12-08T14:49:59.107Z,64.55
2017-12-08T14:51:07.981Z,64.61